sensor_id;sensor_type;location;lat;lon;timestamp;pressure;altitude;pressure_sealevel;temperature;humidity
4586;BME280;2305;50.118;8.952;2022-08-19T00:00:10;100087.06;;;22.48;100.00
4586;BME280;2305;50.118;8.952;2022-08-19T00:02:40;100083.34;;;22.49;100.00
4586;BME280;2305;50.118;8.952;2022-08-19T00:05:17;100092.03;;;22.51;100.00
4586;BME280;2305;50.118;8.952;2022-08-19T00:07:45;100098.22;;;22.52;100.00
4586;BME280;2305;50.118;8.952;2022-08-19T00:10:16;100087.25;;;22.53;100.00
4586;BME280;2305;50.118;8.952;2022-08-19T00:12:45;100086.66;;;22.51;100.00
4586;BME280;2305;50.118;8.952;2022-08-19T00:15:15;100078.41;;;22.53;100.00
4586;BME280;2305;50.118;8.952;2022-08-19T00:17:47;100079.22;;;22.53;100.00
4586;BME280;2305;50.118;8.952;2022-08-19T00:20:17;100080.44;;;22.51;100.00
4586;BME280;2305;50.118;8.952;2022-08-19T00:22:46;100084.38;;;22.48;100.00
4586;BME280;2305;50.118;8.952;2022-08-19T00:25:16;100079.00;;;22.48;100.00
4586;BME280;2305;50.118;8.952;2022-08-19T00:27:56;100080.44;;;22.51;100.00
4586;BME280;2305;50.118;8.952;2022-08-19T00:30:24;100070.75;;;22.50;100.00
4586;BME280;2305;50.118;8.952;2022-08-19T00:32:52;100071.78;;;22.49;100.00
4586;BME280;2305;50.118;8.952;2022-08-19T00:35:23;100061.88;;;22.49;100.00
4586;BME280;2305;50.118;8.952;2022-08-19T00:37:54;100056.91;;;22.46;100.00
4586;BME280;2305;50.118;8.952;2022-08-19T00:40:24;100053.41;;;22.46;100.00
4586;BME280;2305;50.118;8.952;2022-08-19T00:42:53;100058.53;;;22.47;100.00
4586;BME280;2305;50.118;8.952;2022-08-19T00:45:23;100058.13;;;22.44;100.00
4586;BME280;2305;50.118;8.952;2022-08-19T00:47:54;100063.31;;;22.45;100.00
4586;BME280;2305;50.118;8.952;2022-08-19T00:50:22;100056.91;;;22.46;100.00
4586;BME280;2305;50.118;8.952;2022-08-19T00:52:51;100060.63;;;22.45;100.00
4586;BME280;2305;50.118;8.952;2022-08-19T00:55:21;100056.91;;;22.46;100.00
4586;BME280;2305;50.118;8.952;2022-08-19T00:57:55;100056.50;;;22.49;100.00
4586;BME280;2305;50.118;8.952;2022-08-19T01:00:25;100056.06;;;22.52;100.00
4586;BME280;2305;50.118;8.952;2022-08-19T01:02:56;100047.81;;;22.54;100.00
4586;BME280;2305;50.118;8.952;2022-08-19T01:05:26;100042.66;;;22.52;100.00
4586;BME280;2305;50.118;8.952;2022-08-19T01:07:56;100032.94;;;22.51;100.00
4586;BME280;2305;50.118;8.952;2022-08-19T01:10:26;100040.56;;;22.54;100.00
4586;BME280;2305;50.118;8.952;2022-08-19T01:13:04;100030.47;;;22.56;100.00
4586;BME280;2305;50.118;8.952;2022-08-19T01:15:33;100041.19;;;22.63;100.00
4586;BME280;2305;50.118;8.952;2022-08-19T01:18:06;100031.28;;;22.57;100.00
4586;BME280;2305;50.118;8.952;2022-08-19T01:20:35;100042.22;;;22.55;100.00
4586;BME280;2305;50.118;8.952;2022-08-19T01:23:05;100045.34;;;22.52;100.00
4586;BME280;2305;50.118;8.952;2022-08-19T01:25:36;100046.97;;;22.53;100.00
4586;BME280;2305;50.118;8.952;2022-08-19T01:28:07;100047.19;;;22.52;100.00
4586;BME280;2305;50.118;8.952;2022-08-19T01:30:37;100041.19;;;22.50;100.00
4586;BME280;2305;50.118;8.952;2022-08-19T01:33:10;100031.91;;;22.52;100.00
4586;BME280;2305;50.118;8.952;2022-08-19T01:35:41;100040.38;;;22.49;100.00
4586;BME280;2305;50.118;8.952;2022-08-19T01:38:20;100037.28;;;22.52;100.00
4586;BME280;2305;50.118;8.952;2022-08-19T01:40:48;100031.50;;;22.49;100.00
4586;BME280;2305;50.118;8.952;2022-08-19T01:43:16;100027.97;;;22.55;100.00
4586;BME280;2305;50.118;8.952;2022-08-19T01:45:46;100035.81;;;22.50;100.00
4586;BME280;2305;50.118;8.952;2022-08-19T01:48:14;100038.13;;;22.53;100.00
4586;BME280;2305;50.118;8.952;2022-08-19T01:50:42;100034.59;;;22.52;100.00
4586;BME280;2305;50.118;8.952;2022-08-19T01:53:12;100038.91;;;22.53;100.00
4586;BME280;2305;50.118;8.952;2022-08-19T01:55:42;100024.69;;;22.53;100.00
4586;BME280;2305;50.118;8.952;2022-08-19T01:58:14;100026.53;;;22.52;100.00
4586;BME280;2305;50.118;8.952;2022-08-19T02:00:44;100023.22;;;22.50;100.00
4586;BME280;2305;50.118;8.952;2022-08-19T02:03:12;100028.59;;;22.50;100.00
4586;BME280;2305;50.118;8.952;2022-08-19T02:05:41;100026.53;;;22.52;100.00
4586;BME280;2305;50.118;8.952;2022-08-19T02:08:09;100031.28;;;22.50;100.00
4586;BME280;2305;50.118;8.952;2022-08-19T02:10:40;100035.03;;;22.49;100.00
4586;BME280;2305;50.118;8.952;2022-08-19T02:13:09;100038.72;;;22.55;100.00
4586;BME280;2305;50.118;8.952;2022-08-19T02:15:38;100036.25;;;22.53;100.00
4586;BME280;2305;50.118;8.952;2022-08-19T02:18:06;100043.69;;;22.51;100.00
4586;BME280;2305;50.118;8.952;2022-08-19T02:20:35;100059.59;;;22.46;100.00
4586;BME280;2305;50.118;8.952;2022-08-19T02:23:03;100065.38;;;22.43;100.00
4586;BME280;2305;50.118;8.952;2022-08-19T02:25:42;100071.78;;;22.42;100.00
4586;BME280;2305;50.118;8.952;2022-08-19T02:28:11;100065.75;;;22.40;100.00
4586;BME280;2305;50.118;8.952;2022-08-19T02:30:45;100068.44;;;22.40;100.00
4586;BME280;2305;50.118;8.952;2022-08-19T02:33:13;100065.75;;;22.40;100.00
4586;BME280;2305;50.118;8.952;2022-08-19T02:35:42;100065.59;;;22.42;100.00
4586;BME280;2305;50.118;8.952;2022-08-19T02:38:10;100067.63;;;22.40;100.00
4586;BME280;2305;50.118;8.952;2022-08-19T02:40:56;100065.13;;;22.38;100.00
4586;BME280;2305;50.118;8.952;2022-08-19T02:43:26;100061.84;;;22.36;100.00
4586;BME280;2305;50.118;8.952;2022-08-19T02:45:59;100061.00;;;22.36;100.00
4586;BME280;2305;50.118;8.952;2022-08-19T02:48:27;100063.50;;;22.37;100.00
4586;BME280;2305;50.118;8.952;2022-08-19T02:50:55;100062.88;;;22.35;100.00
4586;BME280;2305;50.118;8.952;2022-08-19T02:53:27;100072.78;;;22.35;100.00
4586;BME280;2305;50.118;8.952;2022-08-19T02:55:56;100075.88;;;22.32;100.00
4586;BME280;2305;50.118;8.952;2022-08-19T02:58:25;100084.13;;;22.30;100.00
4586;BME280;2305;50.118;8.952;2022-08-19T03:00:55;100077.72;;;22.31;100.00
4586;BME280;2305;50.118;8.952;2022-08-19T03:03:26;100082.50;;;22.29;100.00
4586;BME280;2305;50.118;8.952;2022-08-19T03:06:07;100071.16;;;22.27;100.00
4586;BME280;2305;50.118;8.952;2022-08-19T03:08:36;100072.16;;;22.26;100.00
4586;BME280;2305;50.118;8.952;2022-08-19T03:11:12;100073.19;;;22.25;100.00
4586;BME280;2305;50.118;8.952;2022-08-19T03:13:41;100072.56;;;22.23;100.00
4586;BME280;2305;50.118;8.952;2022-08-19T03:16:10;100080.00;;;22.21;100.00
4586;BME280;2305;50.118;8.952;2022-08-19T03:18:39;100071.75;;;22.16;100.00
4586;BME280;2305;50.118;8.952;2022-08-19T03:21:07;100082.69;;;22.15;100.00
4586;BME280;2305;50.118;8.952;2022-08-19T03:23:38;100077.53;;;22.13;100.00
4586;BME280;2305;50.118;8.952;2022-08-19T03:26:08;100075.84;;;22.12;100.00
4586;BME280;2305;50.118;8.952;2022-08-19T03:28:45;100077.91;;;22.10;100.00
4586;BME280;2305;50.118;8.952;2022-08-19T03:31:20;100078.13;;;22.09;100.00
4586;BME280;2305;50.118;8.952;2022-08-19T03:34:10;100082.69;;;22.08;100.00
4586;BME280;2305;50.118;8.952;2022-08-19T03:36:39;100077.94;;;22.04;100.00
4586;BME280;2305;50.118;8.952;2022-08-19T03:39:07;100080.19;;;22.00;100.00
4586;BME280;2305;50.118;8.952;2022-08-19T03:41:39;100075.22;;;21.97;100.00
4586;BME280;2305;50.118;8.952;2022-08-19T03:44:12;100064.91;;;21.94;100.00
4586;BME280;2305;50.118;8.952;2022-08-19T03:46:48;100071.69;;;21.90;100.00
4586;BME280;2305;50.118;8.952;2022-08-19T03:49:17;100068.16;;;21.83;100.00
4586;BME280;2305;50.118;8.952;2022-08-19T03:51:46;100080.34;;;21.79;100.00
4586;BME280;2305;50.118;8.952;2022-08-19T03:54:16;100070.84;;;21.70;100.00
4586;BME280;2305;50.118;8.952;2022-08-19T03:56:47;100070.41;;;21.67;100.00
4586;BME280;2305;50.118;8.952;2022-08-19T03:59:18;100085.22;;;21.63;100.00
4586;BME280;2305;50.118;8.952;2022-08-19T04:01:46;100084.97;;;21.58;100.00
4586;BME280;2305;50.118;8.952;2022-08-19T04:04:14;100091.78;;;21.54;100.00
4586;BME280;2305;50.118;8.952;2022-08-19T04:06:45;100090.34;;;21.51;100.00
4586;BME280;2305;50.118;8.952;2022-08-19T04:09:14;100098.38;;;21.51;100.00
4586;BME280;2305;50.118;8.952;2022-08-19T04:11:47;100093.22;;;21.50;100.00
4586;BME280;2305;50.118;8.952;2022-08-19T04:14:19;100094.06;;;21.50;100.00
4586;BME280;2305;50.118;8.952;2022-08-19T04:16:48;100095.91;;;21.50;100.00
4586;BME280;2305;50.118;8.952;2022-08-19T04:19:17;100095.09;;;21.49;100.00
4586;BME280;2305;50.118;8.952;2022-08-19T04:21:48;100100.44;;;21.49;100.00
4586;BME280;2305;50.118;8.952;2022-08-19T04:24:17;100096.09;;;21.48;100.00
4586;BME280;2305;50.118;8.952;2022-08-19T04:26:48;100090.72;;;21.48;100.00
4586;BME280;2305;50.118;8.952;2022-08-19T04:29:19;100089.72;;;21.49;100.00
4586;BME280;2305;50.118;8.952;2022-08-19T04:31:49;100089.72;;;21.49;100.00
4586;BME280;2305;50.118;8.952;2022-08-19T04:34:19;100090.34;;;21.51;100.00
4586;BME280;2305;50.118;8.952;2022-08-19T04:36:50;100089.13;;;21.54;100.00
4586;BME280;2305;50.118;8.952;2022-08-19T04:39:21;100093.25;;;21.56;100.00
4586;BME280;2305;50.118;8.952;2022-08-19T04:42:12;100095.09;;;21.56;100.00
4586;BME280;2305;50.118;8.952;2022-08-19T04:44:58;100098.63;;;21.56;100.00
4586;BME280;2305;50.118;8.952;2022-08-19T04:47:27;100090.56;;;21.56;100.00
4586;BME280;2305;50.118;8.952;2022-08-19T04:50:16;100095.09;;;21.56;100.00
4586;BME280;2305;50.118;8.952;2022-08-19T04:52:45;100085.81;;;21.58;100.00
4586;BME280;2305;50.118;8.952;2022-08-19T04:55:13;100088.69;;;21.57;100.00
4586;BME280;2305;50.118;8.952;2022-08-19T04:57:45;100085.81;;;21.58;100.00
4586;BME280;2305;50.118;8.952;2022-08-19T05:00:13;100093.44;;;21.61;100.00
4586;BME280;2305;50.118;8.952;2022-08-19T05:02:41;100097.25;;;21.67;100.00
4586;BME280;2305;50.118;8.952;2022-08-19T05:05:09;100101.34;;;21.69;100.00
4586;BME280;2305;50.118;8.952;2022-08-19T05:07:40;100102.44;;;21.75;100.00
4586;BME280;2305;50.118;8.952;2022-08-19T05:10:09;100102.00;;;21.78;100.00
4586;BME280;2305;50.118;8.952;2022-08-19T05:12:38;100102.25;;;21.83;100.00
4586;BME280;2305;50.118;8.952;2022-08-19T05:15:10;100102.00;;;21.84;100.00
4586;BME280;2305;50.118;8.952;2022-08-19T05:17:40;100104.69;;;21.84;100.00
4586;BME280;2305;50.118;8.952;2022-08-19T05:20:29;100112.34;;;21.87;100.00
4586;BME280;2305;50.118;8.952;2022-08-19T05:23:14;100118.34;;;21.89;100.00
4586;BME280;2305;50.118;8.952;2022-08-19T05:25:49;100116.91;;;21.93;100.00
4586;BME280;2305;50.118;8.952;2022-08-19T05:28:18;100121.88;;;21.96;100.00
4586;BME280;2305;50.118;8.952;2022-08-19T05:30:48;100118.78;;;21.99;100.00
4586;BME280;2305;50.118;8.952;2022-08-19T05:33:19;100121.91;;;22.03;100.00
4586;BME280;2305;50.118;8.952;2022-08-19T05:35:48;100125.81;;;22.07;100.00
4586;BME280;2305;50.118;8.952;2022-08-19T05:38:17;100126.44;;;22.09;100.00
4586;BME280;2305;50.118;8.952;2022-08-19T05:40:45;100125.44;;;22.10;100.00
4586;BME280;2305;50.118;8.952;2022-08-19T05:43:15;100134.09;;;22.12;100.00
4586;BME280;2305;50.118;8.952;2022-08-19T05:45:43;100132.63;;;22.16;100.00
4586;BME280;2305;50.118;8.952;2022-08-19T05:48:13;100124.19;;;22.25;100.00
4586;BME280;2305;50.118;8.952;2022-08-19T05:50:41;100127.09;;;22.30;100.00
4586;BME280;2305;50.118;8.952;2022-08-19T05:53:10;100124.63;;;22.35;100.00
4586;BME280;2305;50.118;8.952;2022-08-19T05:55:39;100121.72;;;22.37;100.00
4586;BME280;2305;50.118;8.952;2022-08-19T05:58:06;100128.34;;;22.41;100.00
4586;BME280;2305;50.118;8.952;2022-08-19T06:00:35;100131.69;;;22.43;100.00
4586;BME280;2305;50.118;8.952;2022-08-19T06:03:04;100135.63;;;22.47;100.00
4586;BME280;2305;50.118;8.952;2022-08-19T06:05:40;100141.81;;;22.47;100.00
4586;BME280;2305;50.118;8.952;2022-08-19T06:08:19;100146.78;;;22.50;100.00
4586;BME280;2305;50.118;8.952;2022-08-19T06:11:17;100151.34;;;22.56;100.00
4586;BME280;2305;50.118;8.952;2022-08-19T06:13:47;100161.44;;;22.67;100.00
4586;BME280;2305;50.118;8.952;2022-08-19T06:16:28;100166.63;;;22.75;100.00
4586;BME280;2305;50.118;8.952;2022-08-19T06:19:01;100159.38;;;22.82;100.00
4586;BME280;2305;50.118;8.952;2022-08-19T06:21:31;100168.06;;;22.91;100.00
4586;BME280;2305;50.118;8.952;2022-08-19T06:23:59;100174.25;;;22.98;100.00
4586;BME280;2305;50.118;8.952;2022-08-19T06:26:29;100181.06;;;23.07;100.00
4586;BME280;2305;50.118;8.952;2022-08-19T06:28:57;100180.25;;;23.13;100.00
4586;BME280;2305;50.118;8.952;2022-08-19T06:31:29;100184.63;;;23.20;100.00
4586;BME280;2305;50.118;8.952;2022-08-19T06:34:00;100183.34;;;23.29;100.00
4586;BME280;2305;50.118;8.952;2022-08-19T06:36:33;100195.72;;;23.37;100.00
4586;BME280;2305;50.118;8.952;2022-08-19T06:39:03;100201.13;;;23.43;100.00
4586;BME280;2305;50.118;8.952;2022-08-19T06:41:34;100194.47;;;23.52;100.00
4586;BME280;2305;50.118;8.952;2022-08-19T06:44:16;100196.91;;;23.60;100.00
4586;BME280;2305;50.118;8.952;2022-08-19T06:46:46;100200.41;;;23.67;100.00
4586;BME280;2305;50.118;8.952;2022-08-19T06:49:20;100190.47;;;23.74;100.00
4586;BME280;2305;50.118;8.952;2022-08-19T06:51:50;100182.53;;;23.86;100.00
4586;BME280;2305;50.118;8.952;2022-08-19T06:54:18;100189.19;;;23.90;100.00
4586;BME280;2305;50.118;8.952;2022-08-19T06:56:47;100203.25;;;23.98;100.00
4586;BME280;2305;50.118;8.952;2022-08-19T06:59:16;100207.16;;;24.02;100.00
4586;BME280;2305;50.118;8.952;2022-08-19T07:01:47;100203.81;;;24.07;100.00
4586;BME280;2305;50.118;8.952;2022-08-19T07:04:18;100207.13;;;24.09;100.00
4586;BME280;2305;50.118;8.952;2022-08-19T07:06:46;100208.78;;;24.10;100.00
4586;BME280;2305;50.118;8.952;2022-08-19T07:09:22;100206.50;;;24.13;100.00
4586;BME280;2305;50.118;8.952;2022-08-19T07:11:52;100213.31;;;24.16;100.00
4586;BME280;2305;50.118;8.952;2022-08-19T07:14:23;100208.75;;;24.16;100.00
4586;BME280;2305;50.118;8.952;2022-08-19T07:16:55;100214.53;;;24.20;100.00
4586;BME280;2305;50.118;8.952;2022-08-19T07:19:26;100219.91;;;24.20;100.00
4586;BME280;2305;50.118;8.952;2022-08-19T07:21:55;100219.91;;;24.26;100.00
4586;BME280;2305;50.118;8.952;2022-08-19T07:24:25;100220.03;;;24.31;100.00
4586;BME280;2305;50.118;8.952;2022-08-19T07:27:01;100216.31;;;24.32;100.00
4586;BME280;2305;50.118;8.952;2022-08-19T07:29:40;100219.19;;;24.37;100.00
4586;BME280;2305;50.118;8.952;2022-08-19T07:32:09;100217.28;;;24.44;100.00
4586;BME280;2305;50.118;8.952;2022-08-19T07:34:39;100217.69;;;24.47;100.00
4586;BME280;2305;50.118;8.952;2022-08-19T07:37:08;100223.00;;;24.60;100.00
4586;BME280;2305;50.118;8.952;2022-08-19T07:39:38;100219.84;;;24.70;100.00
4586;BME280;2305;50.118;8.952;2022-08-19T07:42:09;100214.78;;;24.80;100.00
4586;BME280;2305;50.118;8.952;2022-08-19T07:44:41;100222.97;;;24.91;100.00
4586;BME280;2305;50.118;8.952;2022-08-19T07:47:18;100222.22;;;25.09;100.00
4586;BME280;2305;50.118;8.952;2022-08-19T07:50:09;100208.81;;;25.20;100.00
4586;BME280;2305;50.118;8.952;2022-08-19T07:52:38;100213.81;;;25.23;100.00
4586;BME280;2305;50.118;8.952;2022-08-19T07:55:09;100223.81;;;25.16;100.00
4586;BME280;2305;50.118;8.952;2022-08-19T07:57:58;100235.28;;;25.12;100.00
4586;BME280;2305;50.118;8.952;2022-08-19T08:00:28;100233.78;;;25.16;100.00
4586;BME280;2305;50.118;8.952;2022-08-19T08:02:56;100238.75;;;25.19;100.00
4586;BME280;2305;50.118;8.952;2022-08-19T08:05:25;100242.91;;;25.15;100.00
4586;BME280;2305;50.118;8.952;2022-08-19T08:08:11;100245.88;;;25.07;100.00
4586;BME280;2305;50.118;8.952;2022-08-19T08:10:59;100253.69;;;25.15;100.00
4586;BME280;2305;50.118;8.952;2022-08-19T08:13:28;100242.03;;;25.21;100.00
4586;BME280;2305;50.118;8.952;2022-08-19T08:15:57;100240.16;;;25.21;100.00
4586;BME280;2305;50.118;8.952;2022-08-19T08:18:25;100240.16;;;25.21;100.00
4586;BME280;2305;50.118;8.952;2022-08-19T08:20:57;100243.97;;;25.14;100.00
4586;BME280;2305;50.118;8.952;2022-08-19T08:23:25;100242.97;;;25.08;100.00
4586;BME280;2305;50.118;8.952;2022-08-19T08:25:57;100246.28;;;25.10;100.00
4586;BME280;2305;50.118;8.952;2022-08-19T08:28:27;100245.88;;;25.07;100.00
4586;BME280;2305;50.118;8.952;2022-08-19T08:30:57;100241.56;;;25.06;100.00
4586;BME280;2305;50.118;8.952;2022-08-19T08:33:26;100250.03;;;25.09;100.00
4586;BME280;2305;50.118;8.952;2022-08-19T08:36:01;100235.69;;;25.09;100.00
4586;BME280;2305;50.118;8.952;2022-08-19T08:38:30;100235.41;;;25.17;100.00
4586;BME280;2305;50.118;8.952;2022-08-19T08:41:13;100238.50;;;25.20;100.00
4586;BME280;2305;50.118;8.952;2022-08-19T08:43:51;100234.06;;;25.32;100.00
4586;BME280;2305;50.118;8.952;2022-08-19T08:46:24;100236.44;;;25.47;100.00
4586;BME280;2305;50.118;8.952;2022-08-19T08:49:02;100241.38;;;25.68;100.00
4586;BME280;2305;50.118;8.952;2022-08-19T08:51:38;100238.09;;;25.84;100.00
4586;BME280;2305;50.118;8.952;2022-08-19T08:54:11;100234.66;;;25.95;100.00
4586;BME280;2305;50.118;8.952;2022-08-19T08:56:41;100223.47;;;26.09;100.00
4586;BME280;2305;50.118;8.952;2022-08-19T08:59:22;100216.47;;;26.20;100.00
4586;BME280;2305;50.118;8.952;2022-08-19T09:01:52;100217.13;;;26.33;100.00
4586;BME280;2305;50.118;8.952;2022-08-19T09:04:20;100218.22;;;26.44;100.00
4586;BME280;2305;50.118;8.952;2022-08-19T09:06:54;100221.59;;;26.57;100.00
4586;BME280;2305;50.118;8.952;2022-08-19T09:09:28;100223.72;;;26.67;100.00
4586;BME280;2305;50.118;8.952;2022-08-19T09:12:05;100224.59;;;26.79;100.00
4586;BME280;2305;50.118;8.952;2022-08-19T09:14:45;100221.78;;;26.85;100.00
4586;BME280;2305;50.118;8.952;2022-08-19T09:17:20;100218.13;;;26.91;100.00
4586;BME280;2305;50.118;8.952;2022-08-19T09:19:57;100222.59;;;26.97;100.00
4586;BME280;2305;50.118;8.952;2022-08-19T09:22:30;100214.84;;;27.01;100.00
4586;BME280;2305;50.118;8.952;2022-08-19T09:24:59;100218.63;;;27.00;100.00
4586;BME280;2305;50.118;8.952;2022-08-19T09:27:27;100228.97;;;27.03;100.00
4586;BME280;2305;50.118;8.952;2022-08-19T09:30:14;100230.94;;;26.96;100.00
4586;BME280;2305;50.118;8.952;2022-08-19T09:32:44;100220.59;;;26.93;100.00
4586;BME280;2305;50.118;8.952;2022-08-19T09:35:14;100215.78;;;26.95;100.00
4586;BME280;2305;50.118;8.952;2022-08-19T09:37:42;100211.56;;;26.99;100.00
4586;BME280;2305;50.118;8.952;2022-08-19T09:40:16;100216.28;;;27.03;100.00
4586;BME280;2305;50.118;8.952;2022-08-19T09:42:46;100209.44;;;27.01;100.00
4586;BME280;2305;50.118;8.952;2022-08-19T09:45:21;100207.22;;;26.98;100.00
4586;BME280;2305;50.118;8.952;2022-08-19T09:47:51;100215.78;;;26.95;100.00
4586;BME280;2305;50.118;8.952;2022-08-19T09:50:22;100219.19;;;27.02;100.00
4586;BME280;2305;50.118;8.952;2022-08-19T09:52:53;100212.50;;;26.93;100.00
4586;BME280;2305;50.118;8.952;2022-08-19T09:55:25;100216.63;;;26.95;100.00
4586;BME280;2305;50.118;8.952;2022-08-19T09:57:59;100214.28;;;26.99;100.00
4586;BME280;2305;50.118;8.952;2022-08-19T10:00:32;100219.34;;;27.07;100.00
4586;BME280;2305;50.118;8.952;2022-08-19T10:03:00;100212.09;;;27.19;100.00
4586;BME280;2305;50.118;8.952;2022-08-19T10:05:29;100207.38;;;27.26;100.00
4586;BME280;2305;50.118;8.952;2022-08-19T10:08:15;100207.84;;;27.34;100.00
4586;BME280;2305;50.118;8.952;2022-08-19T10:10:47;100201.94;;;27.49;100.00
4586;BME280;2305;50.118;8.952;2022-08-19T10:13:18;100206.06;;;27.63;100.00
4586;BME280;2305;50.118;8.952;2022-08-19T10:15:50;100203.94;;;27.76;100.00
4586;BME280;2305;50.118;8.952;2022-08-19T10:18:21;100197.06;;;27.97;100.00
4586;BME280;2305;50.118;8.952;2022-08-19T10:20:50;100206.25;;;28.24;100.00
4586;BME280;2305;50.118;8.952;2022-08-19T10:23:19;100204.56;;;28.46;100.00
4586;BME280;2305;50.118;8.952;2022-08-19T10:25:48;100198.22;;;28.57;100.00
4586;BME280;2305;50.118;8.952;2022-08-19T10:28:17;100199.47;;;28.66;100.00
4586;BME280;2305;50.118;8.952;2022-08-19T10:30:45;100202.59;;;28.58;100.00
4586;BME280;2305;50.118;8.952;2022-08-19T10:33:15;100190.78;;;28.36;100.00
4586;BME280;2305;50.118;8.952;2022-08-19T10:36:06;100190.91;;;28.41;100.00
4586;BME280;2305;50.118;8.952;2022-08-19T10:38:34;100189.19;;;28.51;100.00
4586;BME280;2305;50.118;8.952;2022-08-19T10:41:07;100185.84;;;28.61;100.00
4586;BME280;2305;50.118;8.952;2022-08-19T10:43:35;100182.31;;;28.77;100.00
4586;BME280;2305;50.118;8.952;2022-08-19T10:46:06;100186.19;;;28.97;100.00
4586;BME280;2305;50.118;8.952;2022-08-19T10:48:44;100183.06;;;29.22;100.00
4586;BME280;2305;50.118;8.952;2022-08-19T10:51:12;100174.81;;;29.33;100.00
4586;BME280;2305;50.118;8.952;2022-08-19T10:54:00;100176.72;;;29.33;100.00
4586;BME280;2305;50.118;8.952;2022-08-19T10:56:34;100169.31;;;29.28;97.92
4586;BME280;2305;50.118;8.952;2022-08-19T10:59:21;100169.81;;;29.09;100.00
4586;BME280;2305;50.118;8.952;2022-08-19T11:01:53;100164.63;;;28.91;100.00
4586;BME280;2305;50.118;8.952;2022-08-19T11:04:24;100153.94;;;28.84;100.00
4586;BME280;2305;50.118;8.952;2022-08-19T11:06:55;100144.75;;;28.85;100.00
4586;BME280;2305;50.118;8.952;2022-08-19T11:09:25;100137.03;;;28.94;100.00
4586;BME280;2305;50.118;8.952;2022-08-19T11:12:00;100128.88;;;29.10;100.00
4586;BME280;2305;50.118;8.952;2022-08-19T11:14:31;100133.75;;;29.30;100.00
4586;BME280;2305;50.118;8.952;2022-08-19T11:17:01;100135.53;;;29.41;96.91
4586;BME280;2305;50.118;8.952;2022-08-19T11:19:32;100134.38;;;29.37;96.37
4586;BME280;2305;50.118;8.952;2022-08-19T11:22:01;100139.25;;;29.35;98.32
4586;BME280;2305;50.118;8.952;2022-08-19T11:24:30;100133.75;;;29.30;100.00
4586;BME280;2305;50.118;8.952;2022-08-19T11:27:04;100133.38;;;29.43;95.64
4586;BME280;2305;50.118;8.952;2022-08-19T11:29:33;100135.09;;;29.49;98.72
4586;BME280;2305;50.118;8.952;2022-08-19T11:32:04;100131.19;;;29.56;97.54
4586;BME280;2305;50.118;8.952;2022-08-19T11:34:33;100123.59;;;29.58;91.28
4586;BME280;2305;50.118;8.952;2022-08-19T11:37:03;100121.19;;;29.62;84.93
4586;BME280;2305;50.118;8.952;2022-08-19T11:39:33;100122.50;;;29.59;85.12
4586;BME280;2305;50.118;8.952;2022-08-19T11:42:03;100119.38;;;29.51;86.99
4586;BME280;2305;50.118;8.952;2022-08-19T11:44:54;100098.56;;;29.56;84.22
4586;BME280;2305;50.118;8.952;2022-08-19T11:47:22;100117.59;;;29.56;92.38
4586;BME280;2305;50.118;8.952;2022-08-19T11:49:52;100112.41;;;29.55;82.25
4586;BME280;2305;50.118;8.952;2022-08-19T11:52:20;100113.94;;;29.51;81.70
4586;BME280;2305;50.118;8.952;2022-08-19T11:54:47;100115.06;;;29.33;81.75
4586;BME280;2305;50.118;8.952;2022-08-19T11:57:16;100121.44;;;29.22;81.71
4586;BME280;2305;50.118;8.952;2022-08-19T11:59:48;100119.84;;;29.26;79.44
4586;BME280;2305;50.118;8.952;2022-08-19T12:02:17;100112.75;;;29.20;80.04
4586;BME280;2305;50.118;8.952;2022-08-19T12:04:45;100116.53;;;29.41;82.59
4586;BME280;2305;50.118;8.952;2022-08-19T12:07:15;100107.72;;;29.72;79.45
4586;BME280;2305;50.118;8.952;2022-08-19T12:09:43;100107.69;;;29.93;72.22
4586;BME280;2305;50.118;8.952;2022-08-19T12:12:14;100097.50;;;30.05;72.23
4586;BME280;2305;50.118;8.952;2022-08-19T12:14:42;100102.50;;;30.13;72.48
4586;BME280;2305;50.118;8.952;2022-08-19T12:17:12;100093.34;;;30.24;70.57
4586;BME280;2305;50.118;8.952;2022-08-19T12:19:40;100086.66;;;30.36;70.07
4586;BME280;2305;50.118;8.952;2022-08-19T12:22:08;100083.81;;;30.53;70.57
4586;BME280;2305;50.118;8.952;2022-08-19T12:24:37;100090.22;;;30.68;68.17
4586;BME280;2305;50.118;8.952;2022-08-19T12:27:05;100085.38;;;30.44;68.37
4586;BME280;2305;50.118;8.952;2022-08-19T12:29:38;100088.38;;;30.16;69.35
4586;BME280;2305;50.118;8.952;2022-08-19T12:32:08;100086.75;;;29.94;72.21
4586;BME280;2305;50.118;8.952;2022-08-19T12:34:41;100093.09;;;29.99;72.88
4586;BME280;2305;50.118;8.952;2022-08-19T12:37:09;100088.44;;;30.21;71.41
4586;BME280;2305;50.118;8.952;2022-08-19T12:39:40;100088.34;;;30.42;69.52
4586;BME280;2305;50.118;8.952;2022-08-19T12:42:09;100085.38;;;30.44;67.01
4586;BME280;2305;50.118;8.952;2022-08-19T12:44:39;100097.09;;;30.44;68.06
4586;BME280;2305;50.118;8.952;2022-08-19T12:47:09;100083.66;;;30.64;66.69
4586;BME280;2305;50.118;8.952;2022-08-19T12:49:38;100090.56;;;30.77;66.86
4586;BME280;2305;50.118;8.952;2022-08-19T12:52:22;100091.75;;;30.91;64.04
4586;BME280;2305;50.118;8.952;2022-08-19T12:54:52;100086.22;;;30.81;61.38
4586;BME280;2305;50.118;8.952;2022-08-19T12:57:22;100072.78;;;30.64;62.30
4586;BME280;2305;50.118;8.952;2022-08-19T13:00:01;100078.41;;;30.58;62.14
4586;BME280;2305;50.118;8.952;2022-08-19T13:02:33;100084.88;;;30.52;63.14
4586;BME280;2305;50.118;8.952;2022-08-19T13:05:07;100079.25;;;30.27;66.30
4586;BME280;2305;50.118;8.952;2022-08-19T13:07:36;100079.41;;;30.16;68.62
4586;BME280;2305;50.118;8.952;2022-08-19T13:10:09;100086.75;;;30.15;68.85
4586;BME280;2305;50.118;8.952;2022-08-19T13:12:40;100082.94;;;30.16;67.60
4586;BME280;2305;50.118;8.952;2022-08-19T13:15:09;100089.00;;;30.23;67.98
4586;BME280;2305;50.118;8.952;2022-08-19T13:17:38;100076.19;;;30.50;67.27
4586;BME280;2305;50.118;8.952;2022-08-19T13:20:08;100085.22;;;30.92;62.32
4586;BME280;2305;50.118;8.952;2022-08-19T13:22:37;100080.44;;;31.14;60.29
4586;BME280;2305;50.118;8.952;2022-08-19T13:25:08;100077.59;;;31.40;58.04